Etusivu
METAR-TAF:

METAR-TAF

Lentoasemat :

Sand Point, Alaska, Yhdysvallat

Leveyspiiri: 55-19N, Pituuspiiri: 160-31W, korkeus merenpinnasta: 7 m

Tämänhetkinen sää

Tämä raportti tehtiin 33 minuuttia sitten, kello 21.59 UTC
tyyntä
Lämpötila 11°C
Kosteus 82%
Ilmanpaine 1013 hPa
Näkyvyys: 16.1 km
Muutamia pilviä 1400 ft:n korkeudessa
Hajonneita pilviä 1800 ft:n korkeudessa
Pilvistä 2700 ft:n korkeudessa
heikkoa tihkusadetta

METAR: PASD 172159Z 00000KT 10SM -DZ FEW014 BKN018 OVC027 11/08 A2992 RMK AO2 DZB59 PNO $

Aika: 14:32 (22:32 UTC)

Sääennuste

Tämä raportti tehtiin 5 tuntia ja 12 minuuttia sitten, kello 17.20 UTC
Ennuste voimassa 17. päivästä klo 18 UTC - 18. päivään klo 18 UTC
Tuuli 4 kn etelästä
Näkyvyys: 10 km
Hajonneita pilviä 1400 ft:n korkeudessa
From 18. päivästä klo 1500 UTC
Tuuli 6 kn pohjoisesta
Näkyvyys: 10 km
Hajonneita pilviä 5000 ft:n korkeudessa

TAF: PASD 171720Z 1718/1818 18004KT P6SM BKN014 FM181500 35006KT P6SM BKN050

Säähavainnot ja -ennusteet yli 4000 lentoasemalta (METAR- ja TAF-raportit).

Käytössä olevat sääasemat on merkitty karttaan keltaisilla ja punaisilla pisteillä.

Aseta hiiri pisteen päälle nähdäksesi sääaseman nimen.

Klikkaa sitten nähdäksesi säähavainnot ja -ennusteet.

Kartan vaihtaminen: klikkaa mustalla rastilla varustettuja vihreitä pisteitä, niin voit zoomata sisään; viivalla varustettua vihreää pistettä, niin voit zoomata ulos tai vihreitä nuolia, niin pääset viereisille kartoille.


METAR-TAF: